createdAt,value
2023-03-20T00:02:02.078Z,3.40
2023-03-20T00:04:29.518Z,4.60
2023-03-20T00:06:57.294Z,3.53
2023-03-20T00:09:26.542Z,3.60
2023-03-20T00:11:56.152Z,4.37
2023-03-20T00:14:24.825Z,8.40
2023-03-20T00:16:53.132Z,4.20
2023-03-20T00:19:31.537Z,3.40
2023-03-20T00:21:58.882Z,3.47
2023-03-20T00:24:26.810Z,6.20
2023-03-20T00:26:55.790Z,5.00
2023-03-20T00:29:26.651Z,3.50
2023-03-20T00:31:54.934Z,4.90
2023-03-20T00:34:26.188Z,5.40
2023-03-20T00:36:54.029Z,7.13
2023-03-20T00:39:21.359Z,3.60
2023-03-20T00:41:52.208Z,3.27
2023-03-20T00:44:24.571Z,2.97
2023-03-20T00:46:55.962Z,3.77
2023-03-20T00:49:27.847Z,10.50
2023-03-20T00:51:55.634Z,7.20
2023-03-20T00:54:23.079Z,4.13
2023-03-20T00:56:59.381Z,5.70
2023-03-20T00:59:32.259Z,3.43
2023-03-20T01:02:01.010Z,3.63
2023-03-20T01:04:36.242Z,4.90
2023-03-20T01:07:06.565Z,3.17
2023-03-20T01:09:33.802Z,5.13
2023-03-20T01:12:01.518Z,5.67
2023-03-20T01:14:30.454Z,4.03
2023-03-20T01:16:58.084Z,3.10
2023-03-20T01:19:25.277Z,3.30
2023-03-20T01:21:52.272Z,3.87
2023-03-20T01:24:19.757Z,3.90
2023-03-20T01:26:46.942Z,3.67
2023-03-20T01:29:20.600Z,4.27
2023-03-20T01:31:49.688Z,4.20
2023-03-20T01:34:17.896Z,4.00
2023-03-20T01:36:49.333Z,3.60
2023-03-20T01:39:18.369Z,3.00
2023-03-20T01:41:45.473Z,3.40
2023-03-20T01:44:22.670Z,4.37
2023-03-20T01:46:53.403Z,3.70
2023-03-20T01:50:16.586Z,3.80
2023-03-20T01:52:44.135Z,3.10
2023-03-20T01:55:11.304Z,3.77
2023-03-20T01:57:39.453Z,3.40
2023-03-20T02:00:12.554Z,3.70
2023-03-20T02:02:42.735Z,3.70
2023-03-20T02:05:14.270Z,3.80
2023-03-20T02:07:41.673Z,4.07
2023-03-20T02:10:13.101Z,5.90
2023-03-20T02:12:41.337Z,5.53
2023-03-20T02:15:09.142Z,6.90
2023-03-20T02:17:36.622Z,4.60
2023-03-20T02:20:17.001Z,5.70
2023-03-20T02:23:32.413Z,3.87
2023-03-20T02:26:30.480Z,3.73
2023-03-20T02:29:45.912Z,4.67
2023-03-20T02:33:06.147Z,4.63
2023-03-20T02:36:15.579Z,4.20
2023-03-20T02:39:16.426Z,3.43
2023-03-20T02:44:45.827Z,3.80
2023-03-20T02:47:21.793Z,4.40
2023-03-20T02:49:57.247Z,3.60
2023-03-20T02:52:34.121Z,6.27
2023-03-20T02:55:16.158Z,4.33
2023-03-20T02:57:52.730Z,3.60
2023-03-20T03:00:28.997Z,4.10
2023-03-20T03:03:06.588Z,6.40
2023-03-20T03:05:40.895Z,4.70
2023-03-20T03:08:11.527Z,4.13
2023-03-20T03:10:45.317Z,4.17
2023-03-20T03:13:18.318Z,6.90
2023-03-20T03:15:49.549Z,4.17
2023-03-20T03:18:21.497Z,4.10
2023-03-20T03:20:55.071Z,4.47
2023-03-20T03:23:27.914Z,3.90
2023-03-20T03:26:01.471Z,4.07
2023-03-20T03:28:37.709Z,5.90
2023-03-20T03:31:08.073Z,7.20
2023-03-20T03:33:38.448Z,4.50
2023-03-20T03:36:14.512Z,4.87
2023-03-20T03:38:50.266Z,4.90
2023-03-20T03:41:29.838Z,3.73
2023-03-20T03:44:07.681Z,6.27
2023-03-20T03:46:44.629Z,4.80
2023-03-20T03:49:16.971Z,5.37
2023-03-20T03:51:48.017Z,4.50
2023-03-20T03:54:19.181Z,3.87
2023-03-20T03:56:50.541Z,6.37
2023-03-20T03:59:23.670Z,3.80
2023-03-20T04:01:52.510Z,4.53
2023-03-20T04:04:22.377Z,7.37
2023-03-20T04:06:50.029Z,5.00
2023-03-20T04:09:16.970Z,4.23
2023-03-20T04:11:49.249Z,5.53
2023-03-20T04:14:16.177Z,5.03
2023-03-20T04:16:43.747Z,7.67
2023-03-20T04:19:10.761Z,5.73
2023-03-20T04:21:38.361Z,7.97
2023-03-20T04:24:07.193Z,11.17
2023-03-20T04:26:34.624Z,9.73
2023-03-20T04:29:03.417Z,12.33
2023-03-20T04:31:31.069Z,18.03
2023-03-20T04:33:58.158Z,26.53
2023-03-20T04:36:25.828Z,23.17
2023-03-20T04:38:55.745Z,29.17
2023-03-20T04:41:24.034Z,27.80
2023-03-20T04:43:51.535Z,26.00
2023-03-20T04:46:19.899Z,30.93
2023-03-20T04:48:47.374Z,26.23
2023-03-20T04:51:14.340Z,26.30
2023-03-20T04:53:41.241Z,30.97
2023-03-20T04:56:09.204Z,26.87
2023-03-20T04:58:36.976Z,31.40
2023-03-20T05:01:04.688Z,31.50
2023-03-20T05:03:33.918Z,27.43
2023-03-20T05:06:01.495Z,31.87
2023-03-20T05:08:28.427Z,30.00
2023-03-20T05:10:56.007Z,27.87
2023-03-20T05:13:23.525Z,33.17
2023-03-20T05:15:50.536Z,36.20
2023-03-20T05:18:18.023Z,31.40
2023-03-20T05:20:46.492Z,31.43
2023-03-20T05:23:13.407Z,29.67
2023-03-20T05:25:40.925Z,27.37
2023-03-20T05:28:08.439Z,26.03
2023-03-20T05:30:35.390Z,25.00
2023-03-20T05:33:02.982Z,31.13
2023-03-20T05:35:30.791Z,25.67
2023-03-20T05:37:59.150Z,27.00
2023-03-20T05:40:26.786Z,24.33
2023-03-20T05:42:53.853Z,22.53
2023-03-20T05:45:20.994Z,22.00
2023-03-20T05:47:48.023Z,27.37
2023-03-20T05:50:15.333Z,25.37
2023-03-20T05:52:42.290Z,31.63
2023-03-20T05:55:10.782Z,30.43
2023-03-20T05:57:37.708Z,28.73
2023-03-20T06:00:06.562Z,30.50
2023-03-20T06:02:33.555Z,28.40
2023-03-20T06:05:00.778Z,32.57
2023-03-20T06:07:27.785Z,36.13
2023-03-20T06:09:55.460Z,32.00
2023-03-20T06:12:24.008Z,31.80
2023-03-20T06:14:50.944Z,32.30
2023-03-20T06:17:18.384Z,30.60
2023-03-20T06:19:45.811Z,27.50
2023-03-20T06:22:12.785Z,27.07
2023-03-20T06:24:40.250Z,32.30
2023-03-20T06:27:07.176Z,27.70
2023-03-20T06:29:35.583Z,31.13
2023-03-20T06:32:04.278Z,27.43
2023-03-20T06:34:31.490Z,27.40
2023-03-20T06:36:58.458Z,36.37
2023-03-20T06:39:25.414Z,33.37
2023-03-20T06:41:52.491Z,29.20
2023-03-20T06:44:19.465Z,27.50
2023-03-20T06:46:47.886Z,31.83
2023-03-20T06:49:14.960Z,37.77
2023-03-20T06:51:41.878Z,35.97
2023-03-20T06:54:09.272Z,35.37
2023-03-20T06:56:36.308Z,35.60
2023-03-20T06:59:03.759Z,31.93
2023-03-20T07:01:31.181Z,29.27
2023-03-20T07:04:01.057Z,30.47
2023-03-20T07:06:28.092Z,36.97
2023-03-20T07:08:55.107Z,33.63
2023-03-20T07:11:22.349Z,30.83
2023-03-20T07:16:33.755Z,28.43
2023-03-20T07:19:02.737Z,39.73
2023-03-20T07:21:30.303Z,30.80
2023-03-20T07:23:58.377Z,31.93
2023-03-20T07:26:25.784Z,32.53
2023-03-20T07:28:53.257Z,33.83
2023-03-20T07:31:23.106Z,31.37
2023-03-20T07:33:50.304Z,34.37
2023-03-20T07:36:19.087Z,39.23
2023-03-20T07:38:46.218Z,27.23
2023-03-20T07:41:13.203Z,34.90
2023-03-20T07:43:40.430Z,33.60
2023-03-20T07:48:54.136Z,31.97
2023-03-20T07:51:22.429Z,32.33
2023-03-20T07:53:49.427Z,26.97
2023-03-20T07:56:16.428Z,31.10
2023-03-20T07:58:43.495Z,26.23
2023-03-20T08:01:10.434Z,28.23
2023-03-20T08:03:39.002Z,29.70
2023-03-20T08:06:09.535Z,30.40
2023-03-20T08:08:37.953Z,27.87
2023-03-20T08:11:05.777Z,31.23
2023-03-20T08:13:32.758Z,40.20
2023-03-20T08:16:01.310Z,29.90
2023-03-20T08:18:28.218Z,38.80
2023-03-20T08:20:55.936Z,32.93
2023-03-20T08:23:22.846Z,28.63
2023-03-20T08:25:52.573Z,36.07
2023-03-20T08:28:20.862Z,27.00
2023-03-20T08:30:48.433Z,30.50
2023-03-20T08:33:17.130Z,27.90
2023-03-20T08:35:44.638Z,33.47
2023-03-20T08:38:13.846Z,36.33
2023-03-20T08:40:41.742Z,33.00
2023-03-20T08:43:10.075Z,33.90
2023-03-20T08:45:37.977Z,35.00
2023-03-20T08:48:05.309Z,27.70
2023-03-20T08:50:33.113Z,31.27
2023-03-20T08:53:01.604Z,29.07
2023-03-20T08:55:28.602Z,30.60
2023-03-20T08:57:57.770Z,31.73
2023-03-20T09:00:27.936Z,27.10
2023-03-20T09:02:54.990Z,22.30
2023-03-20T09:05:22.450Z,21.80
2023-03-20T09:07:49.696Z,22.60
2023-03-20T09:10:17.484Z,25.63
2023-03-20T09:12:44.469Z,33.80
2023-03-20T09:15:12.405Z,22.50
2023-03-20T09:17:40.737Z,21.37
2023-03-20T09:20:09.358Z,48.90
2023-03-20T09:22:36.425Z,48.23
2023-03-20T09:25:03.897Z,15.77
2023-03-20T09:27:30.853Z,14.63
2023-03-20T09:29:57.852Z,17.97
2023-03-20T09:32:24.840Z,16.27
2023-03-20T09:34:53.321Z,14.67
2023-03-20T09:37:20.434Z,19.07
2023-03-20T09:39:47.464Z,15.93
2023-03-20T09:42:32.885Z,14.07
2023-03-20T09:45:09.875Z,21.00
2023-03-20T09:47:46.640Z,18.27
2023-03-20T09:50:25.140Z,14.67
2023-03-20T09:53:00.410Z,17.60
2023-03-20T09:55:35.619Z,21.03
2023-03-20T09:58:12.208Z,14.87
2023-03-20T10:00:43.450Z,14.80
2023-03-20T10:03:19.510Z,12.47
2023-03-20T10:05:55.904Z,12.70
2023-03-20T10:08:28.957Z,10.20
2023-03-20T10:11:11.124Z,7.37
2023-03-20T10:13:59.381Z,7.70
2023-03-20T10:16:42.340Z,9.33
2023-03-20T10:19:22.068Z,8.77
2023-03-20T10:21:57.933Z,9.10
2023-03-20T10:24:29.567Z,7.50
2023-03-20T10:27:02.786Z,11.37
2023-03-20T10:29:41.956Z,10.63
2023-03-20T10:32:18.433Z,9.83
2023-03-20T10:34:58.269Z,10.00
2023-03-20T10:37:42.490Z,8.33
2023-03-20T10:40:27.974Z,10.83
2023-03-20T10:42:59.607Z,8.40
2023-03-20T10:45:35.314Z,10.43
2023-03-20T10:48:14.374Z,8.17
2023-03-20T10:50:47.056Z,8.63
2023-03-20T10:53:27.801Z,7.07
2023-03-20T10:55:58.537Z,8.57
2023-03-20T10:58:29.522Z,6.17
2023-03-20T11:00:57.845Z,6.67
2023-03-20T11:03:28.727Z,8.40
2023-03-20T11:06:09.286Z,7.43
2023-03-20T11:08:42.244Z,8.63
2023-03-20T11:11:10.309Z,7.87
2023-03-20T11:13:41.392Z,5.67
2023-03-20T11:16:18.838Z,6.83
2023-03-20T11:18:46.290Z,6.67
2023-03-20T11:21:21.338Z,6.53
2023-03-20T11:23:50.551Z,4.63
2023-03-20T11:26:21.175Z,3.70
2023-03-20T11:28:52.318Z,3.70
2023-03-20T11:31:26.194Z,4.13
2023-03-20T11:34:11.214Z,4.07
2023-03-20T11:36:41.462Z,3.40
2023-03-20T11:39:15.355Z,2.90
2023-03-20T11:41:50.402Z,24.17
2023-03-20T11:44:28.330Z,13.27
2023-03-20T11:47:00.229Z,2.90
2023-03-20T11:49:28.370Z,2.70
2023-03-20T11:52:00.983Z,2.37
2023-03-20T11:54:30.651Z,2.40
2023-03-20T11:56:59.827Z,2.27
2023-03-20T11:59:32.791Z,2.20
2023-03-20T12:02:01.068Z,3.93
2023-03-20T12:04:30.690Z,2.10
2023-03-20T12:07:04.506Z,2.07
2023-03-20T12:09:41.194Z,2.00
2023-03-20T12:12:17.925Z,3.33
2023-03-20T12:14:54.115Z,3.00
2023-03-20T12:17:38.640Z,2.97
2023-03-20T12:20:23.350Z,2.60
2023-03-20T12:22:58.572Z,2.30
2023-03-20T12:25:30.333Z,2.30
2023-03-20T12:28:05.369Z,2.20
2023-03-20T12:30:50.358Z,2.60
2023-03-20T12:33:30.065Z,1.93
2023-03-20T12:35:59.932Z,1.97
2023-03-20T12:38:30.114Z,2.63
2023-03-20T12:41:10.364Z,68.77
2023-03-20T12:43:59.318Z,10.10
2023-03-20T12:46:32.928Z,3.03
2023-03-20T12:49:10.646Z,2.50
2023-03-20T12:51:53.234Z,3.10
2023-03-20T12:54:36.864Z,3.10
2023-03-20T12:57:19.711Z,2.70
2023-03-20T13:00:03.921Z,2.50
2023-03-20T13:02:42.564Z,2.60
2023-03-20T13:05:26.511Z,3.13
2023-03-20T13:08:13.671Z,2.73
2023-03-20T13:10:53.916Z,3.10
2023-03-20T13:13:33.631Z,2.70
2023-03-20T13:16:13.634Z,2.40
2023-03-20T13:18:52.318Z,3.80
2023-03-20T13:21:29.187Z,3.13
2023-03-20T13:24:15.140Z,4.77
2023-03-20T13:26:50.513Z,2.93
2023-03-20T13:29:28.313Z,3.40
2023-03-20T13:32:08.090Z,2.67
2023-03-20T13:34:55.288Z,2.53
2023-03-20T13:37:28.418Z,4.37
2023-03-20T13:40:06.143Z,3.97
2023-03-20T13:42:38.759Z,3.23
2023-03-20T13:45:22.130Z,3.77
2023-03-20T13:47:51.102Z,3.30
2023-03-20T13:50:35.743Z,4.23
2023-03-20T13:53:14.945Z,4.50
2023-03-20T13:55:49.348Z,5.20
2023-03-20T13:58:49.694Z,7.17
2023-03-20T14:01:26.939Z,4.20
2023-03-20T14:03:54.723Z,4.37
2023-03-20T14:06:51.624Z,3.97
2023-03-20T14:09:32.201Z,4.97
2023-03-20T14:12:06.437Z,12.80
2023-03-20T14:14:42.621Z,4.67
2023-03-20T14:17:19.038Z,4.00
2023-03-20T14:19:46.768Z,3.13
2023-03-20T14:25:17.751Z,5.93
2023-03-20T14:27:56.976Z,5.83
2023-03-20T14:30:41.295Z,6.53
2023-03-20T14:33:27.153Z,3.07
2023-03-20T14:36:20.769Z,2.73
2023-03-20T14:39:00.058Z,3.80
2023-03-20T14:41:37.685Z,4.33
2023-03-20T14:44:22.543Z,7.47
2023-03-20T14:46:55.271Z,3.87
2023-03-20T14:49:47.951Z,3.40
2023-03-20T14:52:33.148Z,2.90
2023-03-20T14:55:35.740Z,4.80
2023-03-20T14:58:05.373Z,1.97
2023-03-20T15:00:44.680Z,2.30
2023-03-20T15:03:15.933Z,2.30
2023-03-20T15:05:45.803Z,2.20
2023-03-20T15:08:23.574Z,2.37
2023-03-20T15:10:54.996Z,2.47
2023-03-20T15:13:24.993Z,3.50
2023-03-20T15:15:55.095Z,2.33
2023-03-20T15:18:25.225Z,2.93
2023-03-20T15:20:55.654Z,5.27
2023-03-20T15:23:22.963Z,2.67
2023-03-20T15:25:51.270Z,3.90
2023-03-20T15:28:22.936Z,2.40
2023-03-20T15:30:53.971Z,4.07
2023-03-20T15:33:28.263Z,2.53
2023-03-20T15:35:56.867Z,3.10
2023-03-20T15:38:29.384Z,2.37
2023-03-20T15:40:56.700Z,2.77
2023-03-20T15:43:26.038Z,3.20
2023-03-20T15:46:02.875Z,2.13
2023-03-20T15:48:34.324Z,3.17
2023-03-20T15:51:05.936Z,3.63
2023-03-20T15:53:38.601Z,6.97
2023-03-20T15:56:18.226Z,2.90
2023-03-20T15:58:49.010Z,18.00
2023-03-20T16:01:19.414Z,6.40
2023-03-20T16:03:46.837Z,3.93
2023-03-20T16:06:22.280Z,4.17
2023-03-20T16:08:58.789Z,4.47
2023-03-20T16:11:33.965Z,2.80
2023-03-20T16:14:01.180Z,2.40
2023-03-20T16:16:30.092Z,3.73
2023-03-20T16:18:59.313Z,5.30
2023-03-20T16:21:31.941Z,4.80
2023-03-20T16:23:59.975Z,4.87
2023-03-20T16:26:28.113Z,4.37
2023-03-20T16:28:58.887Z,2.40
2023-03-20T16:31:29.062Z,2.90
2023-03-20T16:33:59.370Z,2.10
2023-03-20T16:36:31.801Z,2.73
2023-03-20T16:39:07.438Z,9.93
2023-03-20T16:41:36.386Z,8.17
2023-03-20T16:44:08.186Z,3.30
2023-03-20T16:46:35.396Z,4.50
2023-03-20T16:50:00.438Z,3.70
2023-03-20T16:52:31.404Z,27.37
2023-03-20T16:55:01.001Z,4.73
2023-03-20T16:57:34.227Z,3.90
2023-03-20T17:00:08.988Z,3.47
2023-03-20T17:02:41.391Z,4.00
2023-03-20T17:05:13.505Z,4.07
2023-03-20T17:07:42.896Z,4.83
2023-03-20T17:10:20.874Z,2.30
2023-03-20T17:12:50.493Z,5.40
2023-03-20T17:15:19.802Z,2.40
2023-03-20T17:17:47.442Z,2.90
2023-03-20T17:20:22.133Z,3.17
2023-03-20T17:22:51.110Z,2.70
2023-03-20T17:25:18.779Z,4.07
2023-03-20T17:27:46.997Z,3.50
2023-03-20T17:30:19.130Z,6.73
2023-03-20T17:32:46.413Z,4.60
2023-03-20T17:35:14.198Z,4.00
2023-03-20T17:37:41.796Z,5.70
2023-03-20T17:40:17.559Z,4.47
2023-03-20T17:42:44.600Z,3.23
2023-03-20T17:45:14.435Z,3.23
2023-03-20T17:47:43.381Z,3.60
2023-03-20T17:50:20.485Z,45.63
2023-03-20T17:52:47.482Z,6.70
2023-03-20T17:55:16.005Z,5.40
2023-03-20T17:57:43.421Z,3.70
2023-03-20T18:00:18.366Z,2.73
2023-03-20T18:02:45.376Z,10.00
2023-03-20T18:05:12.935Z,6.97
2023-03-20T18:07:40.747Z,3.27
2023-03-20T18:10:20.301Z,2.70
2023-03-20T18:12:47.435Z,4.20
2023-03-20T18:15:14.570Z,4.67
2023-03-20T18:17:41.564Z,7.00
2023-03-20T18:20:23.661Z,3.47
2023-03-20T18:22:50.911Z,2.83
2023-03-20T18:25:19.547Z,3.20
2023-03-20T18:27:46.602Z,7.27
2023-03-20T18:30:17.190Z,3.53
2023-03-20T18:32:44.277Z,7.77
2023-03-20T18:35:12.056Z,5.87
2023-03-20T18:37:39.094Z,3.90
2023-03-20T18:40:15.303Z,9.47
2023-03-20T18:42:44.012Z,6.57
2023-03-20T18:45:12.435Z,3.10
2023-03-20T18:47:39.523Z,5.70
2023-03-20T18:50:14.268Z,5.50
2023-03-20T18:52:41.299Z,5.03
2023-03-20T18:55:09.638Z,5.00
2023-03-20T18:57:43.019Z,4.20
2023-03-20T19:00:23.396Z,4.53
2023-03-20T19:02:52.334Z,3.13
2023-03-20T19:05:20.317Z,6.57
2023-03-20T19:07:48.028Z,98.83
2023-03-20T19:10:29.300Z,5.47
2023-03-20T19:12:57.572Z,5.63
2023-03-20T19:15:28.889Z,8.83
2023-03-20T19:17:56.714Z,4.90
2023-03-20T19:20:36.552Z,5.40
2023-03-20T19:23:05.809Z,7.87
2023-03-20T19:25:34.354Z,7.50
2023-03-20T19:28:02.216Z,5.83
2023-03-20T19:30:34.167Z,3.20
2023-03-20T19:33:01.690Z,4.93
2023-03-20T19:35:54.526Z,3.60
2023-03-20T19:38:20.731Z,3.57
2023-03-20T19:40:49.482Z,5.73
2023-03-20T19:43:16.632Z,57.00
2023-03-20T19:45:45.936Z,6.17
2023-03-20T19:48:15.810Z,3.43
2023-03-20T19:50:46.821Z,6.43
2023-03-20T19:53:18.677Z,3.20
2023-03-20T19:55:46.405Z,4.07
2023-03-20T19:58:13.842Z,2.80
2023-03-20T20:01:12.275Z,8.20
2023-03-20T20:03:31.216Z,6.20
2023-03-20T20:05:59.816Z,7.97
2023-03-20T20:08:42.608Z,3.80
2023-03-20T20:11:14.352Z,4.87
2023-03-20T20:14:03.783Z,2.83
2023-03-20T20:16:29.174Z,3.63
2023-03-20T20:18:57.942Z,3.30
2023-03-20T20:24:12.685Z,4.93
2023-03-20T20:26:49.426Z,5.30
2023-03-20T20:29:21.223Z,4.33
2023-03-20T20:31:48.389Z,4.20
2023-03-20T20:39:51.435Z,3.73
2023-03-20T20:42:18.895Z,4.67
2023-03-20T20:44:46.325Z,8.80
2023-03-20T20:47:13.704Z,5.70
2023-03-20T20:49:42.466Z,3.90
2023-03-20T20:52:10.431Z,5.80
2023-03-20T20:54:37.811Z,4.67
2023-03-20T20:57:04.981Z,6.43
2023-03-20T20:59:31.998Z,4.33
2023-03-20T21:01:58.990Z,3.20
2023-03-20T21:04:26.504Z,4.33
2023-03-20T21:07:11.621Z,3.23
2023-03-20T21:09:39.497Z,5.80
2023-03-20T21:12:08.455Z,4.33
2023-03-20T21:14:36.101Z,5.50
2023-03-20T21:17:04.499Z,4.60
2023-03-20T21:19:35.444Z,4.53
2023-03-20T21:22:06.516Z,4.30
2023-03-20T21:24:34.901Z,86.63
2023-03-20T21:27:04.651Z,37.27
2023-03-20T21:29:31.825Z,7.00
2023-03-20T21:31:58.819Z,3.80
2023-03-20T21:34:26.392Z,3.70
2023-03-20T21:36:53.350Z,2.73
2023-03-20T21:39:21.654Z,5.47
2023-03-20T21:41:48.878Z,4.00
2023-03-20T21:44:28.550Z,4.47
2023-03-20T21:53:17.855Z,4.60
2023-03-20T21:56:29.316Z,4.70
2023-03-20T22:07:26.530Z,3.77
2023-03-20T22:13:13.903Z,3.20
2023-03-20T22:18:19.125Z,6.97
2023-03-20T22:21:29.980Z,3.70
2023-03-20T22:24:10.456Z,4.33
2023-03-20T22:27:03.352Z,4.20
2023-03-20T22:38:06.102Z,3.37
2023-03-20T22:43:57.061Z,5.10
2023-03-20T22:46:05.518Z,3.40
2023-03-20T22:48:35.802Z,3.53
2023-03-20T22:51:02.861Z,4.63
2023-03-20T22:53:32.548Z,85.37
2023-03-20T22:56:00.248Z,11.40
2023-03-20T22:58:27.552Z,4.80
2023-03-20T23:00:57.025Z,5.13
2023-03-20T23:03:42.000Z,3.50
2023-03-20T23:06:16.653Z,4.43
2023-03-20T23:08:50.805Z,4.50
2023-03-20T23:11:21.414Z,4.57
2023-03-20T23:13:48.485Z,4.90
2023-03-20T23:16:17.503Z,2.90
2023-03-20T23:18:44.721Z,5.93
2023-03-20T23:21:12.360Z,3.70
2023-03-20T23:23:40.240Z,5.93
2023-03-20T23:26:09.567Z,6.70
2023-03-20T23:28:38.788Z,3.60
2023-03-20T23:31:11.205Z,4.90
2023-03-20T23:33:40.246Z,4.73
2023-03-20T23:36:21.407Z,7.00
2023-03-20T23:38:55.892Z,5.63
2023-03-20T23:41:43.435Z,3.70
2023-03-20T23:44:10.324Z,5.57
2023-03-20T23:46:37.332Z,3.30
2023-03-20T23:49:06.634Z,5.50
2023-03-20T23:51:34.384Z,4.00
2023-03-20T23:54:01.373Z,3.93
2023-03-20T23:56:29.952Z,3.10
2023-03-20T23:59:03.229Z,2.80
